Terminal Aerodrome Forecast
Issued by NWS

Home | Current Version | Previous Version | Text Only | Print | Product List | Glossary On
Versions: 1 2 3 4 5 6 7 8 9 10 11 12 13 14 15 16 17 18 19 20 21 22 23 24 25 26 27
000
FTUS41 KCTP 010602 RRA
TAFUNV
TAF
KUNV 010602Z 0106/0206 05005KT 4SM -RADZ BR OVC007
     FM011500 08005KT 6SM -RADZ BR OVC007
     FM020000 11005KT 5SM BR OVC004=

USA.gov is the U.S. government's official web portal to all federal, state and local government web resources and services.